KDABKSSI

Guest
Details From KDAB - Daytona Beach Intl
To KSSI - MALCOLM MCKINNON
Flight Number -
Tags generated
Created
Modified
Stats Distance 120 nm / 222 km
Max Altitude 8,100 ft / 2,469 m
Waypoints 3
Social Downloads 1
Likes 0
Share VATSIM

Download

Looking for another format? Having issues loading an existing format? Contact us
Advertisement - Login to hide

Notes

Basic altitude profile: - Ascent Rate: 800ft/min - Ascent Speed: 75kts - Cruise Altitude: 5500ft - Cruise Speed: 87kts - Descent Rate: 800ft/min - Descent Speed: 92kts Options: - Use NATs: yes - Use PACOTS: yes - Use low airways: yes - Use high airways: no

Route

KDAB COKES KSSI

ID Type Via Altitude Latitude Longitude Leg Dist Tot Dist Heading (true) Name
O KDAB APT - 0 ft / 0 m 29.17992˚ -81.05595˚ - 0 nm - Daytona Beach Intl
COKES FIX - 8,100 ft / 2,469 m 29.55493˚ -81.11270˚ 22 nm 22 nm 353° / 352° -
O KSSI APT - 0 ft / 0 m 31.15187˚ -81.39026˚ 96 nm 119 nm 352° / 351° MALCOLM MCKINNON

Altitude Profile

Advertisement - Login to hide

KDAB

Details ICAO KDAB (DAB)
Name Daytona Beach Intl
Region United States
Timezone America/New_York (UTC-5.0)
Stats Elevation 34 ft / 10 m (AMSL)
Location 29.179918° -81.055946°
Runways 3
Magnetic Variation 6.673° W

METAR

KDAB 151853Z 25011KT 10SM FEW045 BKN250 24/14 A3002 RMK AO2 SLP166 T02390144

Decode

TAF

TAF KDAB 151720Z 1518/1618 23009KT P6SM SCT045 BKN060 FM160000 VRB05KT P6SM FEW040 SCT250 FM161500 02007KT P6SM FEW030 BKN070

Decode

Departure Runways

ID Width Length Bearing (true) Bearing (mag) Surface Threshold Offset Overrun Length
07L 151 ft / 46 m 10,492 ft / 3,198 m 65.10° 71.77° Asphalt 689 ft / 210 m 0 ft / 0 m
07R 98 ft / 30 m 3,193 ft / 973 m 65.04° 71.71° Asphalt 0 ft / 0 m 0 ft / 0 m
16 151 ft / 46 m 6,018 ft / 1,834 m 157.27° 163.94° Asphalt 0 ft / 0 m 200 ft / 61 m
25L 98 ft / 30 m 3,193 ft / 973 m 245.04° 251.71° Asphalt 0 ft / 0 m 0 ft / 0 m
25R 151 ft / 46 m 10,492 ft / 3,198 m 245.12° 251.79° Asphalt 0 ft / 0 m 0 ft / 0 m
34 151 ft / 46 m 6,018 ft / 1,834 m 337.27° 343.94° Asphalt 0 ft / 0 m 200 ft / 61 m

KSSI

Details ICAO KSSI (SSI)
Name MALCOLM MCKINNON
Region United States
Timezone America/New_York (UTC-5.0)
Stats Elevation 19 ft / 6 m (AMSL)
Location 31.151867° -81.390263°
Runways 2
Magnetic Variation 6.756° W

METAR

KSSI 151853Z AUTO 26009G17KT 10SM SCT038 20/13 A3000 RMK AO2 SLP159 T02000128

Decode

TAF

TAF AMD KSSI 151902Z 1519/1618 25009KT P6SM SCT035 OVC120 FM160300 29003KT P6SM SCT035 BKN100 FM160600 36005KT P6SM OVC040 FM161300 36006KT P6SM SCT040

Decode

Destination Runways

ID Width Length Bearing (true) Bearing (mag) Surface Threshold Offset Overrun Length
04 100 ft / 30 m 5,808 ft / 1,770 m 35.96° 42.72° Asphalt 1,000 ft / 305 m 0 ft / 0 m
16 75 ft / 23 m 3,320 ft / 1,012 m 154.23° 160.99° Asphalt 0 ft / 0 m 0 ft / 0 m
22 100 ft / 30 m 5,808 ft / 1,770 m 215.97° 222.73° Asphalt 910 ft / 277 m 0 ft / 0 m
34 75 ft / 23 m 3,320 ft / 1,012 m 334.23° 340.99° Asphalt 0 ft / 0 m 233 ft / 71 m